Time;durP1;ratioP1;P1;durP2;ratioP2;P2;SDS_P1;SDS_P2;PMS_P1;PMS_P2;Temp;Humidity;BMP_temperature;BMP_pressure;BME280_temperature;BME280_humidity;BME280_pressure;Samples;Min_cycle;Max_cycle;Signal;HPM_P1;HPM_P2
2022/01/23 00:02:48;;;;;;;6.95;2.60;;;;;;;-3.36;74.84;101492.03;5588026;31;33886;-66
2022/01/23 00:05:52;;;;;;;8.48;3.03;;;;;;;-3.39;74.88;101486.97;5588214;31;33916;-66
2022/01/23 00:08:55;;;;;;;8.15;2.70;;;;;;;-3.31;74.38;101499.66;5574016;31;34227;-66
2022/01/23 00:12:03;;;;;;;7.45;2.72;;;;;;;-3.33;74.32;101494.50;5587873;31;34431;-66
2022/01/23 00:18:28;;;;;;;6.78;3.08;;;;;;;-3.47;75.34;101501.06;5590638;31;33858;-66
2022/01/23 00:21:33;;;;;;;6.93;2.67;;;;;;;-3.41;74.72;101495.69;5590671;31;34613;-66
2022/01/23 00:31:19;;;;;;;4.90;2.50;;;;;;;-3.49;75.07;101508.06;5590498;31;35221;-66
2022/01/23 00:34:21;;;;;;;6.22;2.55;;;;;;;-3.52;74.98;101512.44;5590521;31;33970;-66
2022/01/23 00:37:25;;;;;;;7.85;2.45;;;;;;;-3.51;74.39;101510.69;5590575;31;34673;-66
2022/01/23 00:40:29;;;;;;;7.28;2.20;;;;;;;-3.49;74.85;101508.06;5576643;31;34130;-66
2022/01/23 00:43:34;;;;;;;5.53;2.60;;;;;;;-3.48;75.07;101518.37;5576725;31;34196;-66
2022/01/23 00:46:40;;;;;;;7.70;2.53;;;;;;;-3.56;75.25;101517.78;5590310;31;34016;-65
2022/01/23 00:49:43;;;;;;;4.80;2.58;;;;;;;-3.60;75.30;101504.06;5590854;31;34057;-65
2022/01/23 00:52:45;;;;;;;7.37;2.80;;;;;;;-3.56;74.84;101513.44;5590365;31;33845;-67
2022/01/23 00:55:48;;;;;;;7.57;2.60;;;;;;;-3.55;74.78;101527.25;5590741;31;33888;-66
2022/01/23 00:58:51;;;;;;;7.22;2.83;;;;;;;-3.60;75.60;101534.34;5590208;31;34079;-66
2022/01/23 01:01:54;;;;;;;5.35;2.55;;;;;;;-3.63;75.69;101526.69;5590233;31;33945;-66
2022/01/23 01:04:56;;;;;;;5.05;2.33;;;;;;;-3.61;75.73;101532.66;5590262;31;33908;-66
2022/01/23 01:08:01;;;;;;;7.22;2.20;;;;;;;-3.68;75.76;101524.22;5590232;31;34591;-66
2022/01/23 01:14:31;;;;;;;5.97;2.50;;;;;;;-3.56;75.00;101504.81;5590195;31;34003;-67
2022/01/23 01:30:13;;;;;;;5.82;2.47;;;;;;;-3.55;74.66;101506.53;5590516;31;35329;-67
2022/01/23 01:31:23;;;;;;;5.70;2.17;;;;;;;-3.43;74.19;101492.28;5590059;31;34699;-65
2022/01/23 01:34:36;;;;;;;6.25;2.15;;;;;;;-3.41;74.33;101487.87;5590094;31;34024;-66
2022/01/23 01:37:39;;;;;;;5.95;2.42;;;;;;;-3.44;74.57;101483.66;5589968;31;33852;-66
2022/01/23 01:40:42;;;;;;;6.62;2.75;;;;;;;-3.43;74.62;101474.13;5589994;31;33879;-66
2022/01/23 01:43:46;;;;;;;5.95;2.33;;;;;;;-3.45;74.38;101476.78;5576343;31;34095;-66
2022/01/23 01:46:51;;;;;;;6.78;2.72;;;;;;;-3.44;74.48;101483.66;5590302;31;33314;-67
2022/01/23 01:49:53;;;;;;;9.27;2.70;;;;;;;-3.47;74.35;101490.69;5590341;31;34520;-67
2022/01/23 01:52:57;;;;;;;4.80;2.42;;;;;;;-3.48;74.92;101497.63;5589888;31;33887;-67
2022/01/23 01:56:00;;;;;;;6.90;2.97;;;;;;;-3.53;75.17;101502.97;5589830;31;34655;-67
2022/01/23 01:59:21;;;;;;;6.90;2.47;;;;;;;-3.54;75.33;101503.03;5589880;31;34106;-67
2022/01/23 02:02:54;;;;;;;6.50;2.58;;;;;;;-3.61;75.41;101510.16;5590070;31;34045;-67
2022/01/23 02:09:36;;;;;;;8.25;2.92;;;;;;;-3.76;76.52;101502.03;5589863;31;34082;-66
2022/01/23 02:13:05;;;;;;;8.10;2.70;;;;;;;-3.75;76.84;101501.13;5589702;31;33893;-66
2022/01/23 02:23:09;;;;;;;5.32;2.78;;;;;;;-3.85;77.09;101486.78;5589646;31;34583;-66
2022/01/23 02:56:46;;;;;;;7.12;3.25;;;;;;;-3.55;76.32;101489.22;5509848;32;34032;-66
2022/01/23 02:59:51;;;;;;;5.75;2.92;;;;;;;-3.57;76.42;101487.56;5510090;32;33920;-68
2022/01/23 03:03:02;;;;;;;6.22;2.95;;;;;;;-3.51;76.35;101475.25;5509628;32;34015;-66
2022/01/23 03:32:19;;;;;;;4.68;2.35;;;;;;;-3.31;76.49;101499.66;5588624;31;33967;-66
2022/01/23 03:35:22;;;;;;;6.57;2.42;;;;;;;-3.27;76.53;101499.50;5574834;31;34022;-66
2022/01/23 03:38:26;;;;;;;6.00;2.40;;;;;;;-3.27;76.70;101503.84;5588642;31;33966;-66
2022/01/23 03:41:28;;;;;;;7.57;2.30;;;;;;;-3.26;76.50;101496.00;5588504;31;34594;-66
2022/01/23 03:44:33;;;;;;;6.47;2.83;;;;;;;-3.29;76.90;101490.09;5574820;31;34046;-66
2022/01/23 03:47:41;;;;;;;7.05;2.53;;;;;;;-3.29;76.60;101493.50;5575079;31;34000;-66
2022/01/23 03:50:46;;;;;;;6.97;2.87;;;;;;;-3.29;77.13;101483.12;5590905;31;34022;-66
2022/01/23 03:53:49;;;;;;;6.55;2.67;;;;;;;-3.25;76.72;101487.31;5591135;31;34086;-66
2022/01/23 03:56:51;;;;;;;6.70;2.30;;;;;;;-3.33;77.23;101480.69;5590954;31;35131;-66
2022/01/23 03:59:54;;;;;;;5.43;2.83;;;;;;;-3.36;77.62;101481.66;5590828;31;34166;-67
2022/01/23 04:02:57;;;;;;;7.57;2.70;;;;;;;-3.26;77.13;101474.41;5590776;31;34257;-66
2022/01/23 04:06:01;;;;;;;4.93;2.62;;;;;;;-3.22;77.06;101465.59;5590857;31;34806;-66
2022/01/23 04:09:04;;;;;;;5.03;2.58;;;;;;;-3.21;77.05;101488.91;5591103;31;34660;-66
2022/01/23 04:12:10;;;;;;;9.77;2.95;;;;;;;-3.16;77.29;101487.00;5590881;31;34046;-66
2022/01/23 04:15:35;;;;;;;7.25;2.90;;;;;;;-3.15;76.99;101487.84;5590786;31;34006;-66
2022/01/23 05:04:42;;;;;;;3.97;1.87;;;;;;;-2.77;72.46;101491.66;5590249;31;34022;-66
2022/01/23 05:07:46;;;;;;;6.45;2.60;;;;;;;-2.98;73.43;101500.22;5590164;31;33931;-66
2022/01/23 05:10:49;;;;;;;6.10;2.17;;;;;;;-3.09;73.45;101503.19;5590260;31;33966;-66
2022/01/23 05:13:57;;;;;;;5.82;2.25;;;;;;;-3.12;73.96;101511.94;5590493;31;34705;-66
2022/01/23 05:17:01;;;;;;;4.50;1.70;;;;;;;-2.98;72.78;101518.37;5590202;31;33915;-67
2022/01/23 05:20:05;;;;;;;3.42;1.80;;;;;;;-2.90;71.72;101525.00;5576303;31;34570;-67
2022/01/23 05:23:09;;;;;;;4.75;2.15;;;;;;;-2.95;71.93;101532.09;5576519;31;34012;-66
2022/01/23 05:26:12;;;;;;;4.78;1.77;;;;;;;-2.89;71.36;101529.28;5589972;31;33927;-65
2022/01/23 05:29:15;;;;;;;6.03;2.10;;;;;;;-2.79;70.82;101537.59;5576116;31;34098;-67
2022/01/23 05:32:20;;;;;;;5.62;1.50;;;;;;;-2.90;71.22;101540.56;5575966;31;32671;-67
2022/01/23 05:35:24;;;;;;;4.50;1.77;;;;;;;-2.82;71.15;101545.50;5590031;31;34011;-67
2022/01/23 05:38:27;;;;;;;4.15;1.80;;;;;;;-2.68;70.00;101548.47;5576401;31;34017;-68
2022/01/23 05:41:31;;;;;;;5.22;1.77;;;;;;;-2.70;70.00;101540.72;5590038;31;33944;-67
2022/01/23 05:44:36;;;;;;;3.62;1.55;;;;;;;-2.65;69.56;101550.94;5576342;31;34035;-68
2022/01/23 05:47:39;;;;;;;6.85;1.98;;;;;;;-2.68;69.76;101558.84;5576273;31;34009;-67
2022/01/23 05:50:45;;;;;;;8.35;2.47;;;;;;;-2.58;69.22;101567.16;5589908;31;34093;-66
2022/01/23 05:53:49;;;;;;;8.20;2.00;;;;;;;-2.61;69.39;101565.50;5589888;31;34435;-67
2022/01/23 05:56:56;;;;;;;7.10;1.80;;;;;;;-2.68;69.47;101564.91;5590126;31;34095;-66
2022/01/23 05:59:59;;;;;;;7.22;1.85;;;;;;;-2.58;69.08;101572.34;5589773;31;34191;-66
2022/01/23 06:03:02;;;;;;;7.93;1.80;;;;;;;-2.52;68.67;101572.13;5589820;31;34058;-66
2022/01/23 06:06:06;;;;;;;4.07;1.80;;;;;;;-2.60;68.96;101571.56;5589691;31;34640;-67
2022/01/23 06:09:09;;;;;;;7.50;2.28;;;;;;;-2.71;69.61;101577.97;5589940;31;35132;-66
2022/01/23 06:12:12;;;;;;;4.87;2.03;;;;;;;-2.74;69.76;101567.69;5589452;31;33857;-66
2022/01/23 06:15:16;;;;;;;6.18;2.00;;;;;;;-2.59;69.40;101568.06;5589575;31;34035;-67
2022/01/23 06:18:20;;;;;;;5.07;1.83;;;;;;;-2.70;69.44;101578.81;5589724;31;33965;-67
2022/01/23 06:21:26;;;;;;;5.82;1.80;;;;;;;-2.63;69.09;101575.13;5589537;31;34147;-67
2022/01/23 06:24:31;;;;;;;3.97;1.95;;;;;;;-2.65;69.43;101582.09;5589660;31;34054;-67
2022/01/23 06:27:34;;;;;;;7.55;1.95;;;;;;;-2.61;69.47;101585.47;5589347;31;34050;-66
2022/01/23 06:30:38;;;;;;;11.70;2.33;;;;;;;-2.51;68.58;101594.59;5589269;31;34754;-66
2022/01/23 06:33:41;;;;;;;8.43;2.78;;;;;;;-2.38;68.62;101603.66;5589347;31;34070;-68
2022/01/23 06:36:45;;;;;;;6.07;1.92;;;;;;;-2.23;67.54;101597.91;5589389;31;34343;-67
2022/01/23 06:39:48;;;;;;;4.50;1.83;;;;;;;-2.22;67.97;101608.22;5589682;31;34027;-67
2022/01/23 06:42:51;;;;;;;6.07;2.15;;;;;;;-2.30;67.90;101607.66;5589303;31;33987;-66
2022/01/23 06:45:54;;;;;;;4.90;1.77;;;;;;;-2.23;67.95;101603.09;5589350;31;33807;-67
2022/01/23 06:48:58;;;;;;;2.95;1.45;;;;;;;-2.00;66.93;101607.44;5589576;31;35250;-67
2022/01/23 06:52:01;;;;;;;7.68;2.08;;;;;;;-1.97;66.57;101613.34;5589611;31;34007;-67
2022/01/23 06:55:04;;;;;;;6.35;2.70;;;;;;;-1.96;66.51;101620.25;5589593;31;34077;-66
2022/01/23 06:58:07;;;;;;;3.95;1.83;;;;;;;-1.87;66.00;101614.72;5589255;31;33884;-67
2022/01/23 07:01:10;;;;;;;6.25;2.10;;;;;;;-1.82;65.62;101612.78;5575392;31;35423;-66
2022/01/23 07:04:13;;;;;;;4.60;1.75;;;;;;;-1.77;65.24;101610.84;5575802;31;33856;-66
2022/01/23 07:07:17;;;;;;;3.60;1.95;;;;;;;-1.84;66.05;101621.56;5589025;31;34064;-67
2022/01/23 07:10:24;;;;;;;5.18;1.75;;;;;;;-1.84;65.96;101613.75;5589276;31;34683;-66
2022/01/23 07:13:27;;;;;;;4.12;1.90;;;;;;;-1.77;65.35;101615.19;5588767;31;34480;-66
2022/01/23 07:16:30;;;;;;;3.83;1.92;;;;;;;-1.73;65.11;101621.13;5588884;31;33962;-66
2022/01/23 07:19:35;;;;;;;4.97;2.00;;;;;;;-1.82;65.82;101614.53;5588923;31;33925;-67
2022/01/23 07:22:38;;;;;;;9.32;2.00;;;;;;;-1.80;65.70;101610.13;5589193;31;34052;-67
2022/01/23 07:25:42;;;;;;;6.03;2.00;;;;;;;-1.73;65.25;101618.53;5591056;31;33989;-66
2022/01/23 07:28:46;;;;;;;4.28;1.73;;;;;;;-1.76;65.99;101615.16;5591045;31;34766;-67
2022/01/23 07:31:57;;;;;;;5.47;1.75;;;;;;;-1.68;65.18;101619.19;5590980;31;34284;-66
2022/01/23 07:35:01;;;;;;;4.62;1.90;;;;;;;-1.61;65.21;101610.25;5591160;31;34148;-66
2022/01/23 07:38:05;;;;;;;6.12;1.80;;;;;;;-1.49;64.84;101608.00;5577605;31;34318;-67
2022/01/23 07:41:10;;;;;;;3.92;1.80;;;;;;;-1.42;64.75;101619.03;5590913;31;34677;-67
2022/01/23 07:44:13;;;;;;;4.43;2.12;;;;;;;-1.48;64.22;101616.66;5591073;31;34596;-66
2022/01/23 07:47:22;;;;;;;6.70;2.40;;;;;;;-1.62;64.80;101613.75;5591261;31;34007;-65
2022/01/23 07:50:25;;;;;;;7.82;2.50;;;;;;;-1.62;64.74;101617.22;5590786;31;33882;-66
2022/01/23 07:53:28;;;;;;;5.32;2.00;;;;;;;-1.74;65.13;101619.44;5590784;31;34350;-66
2022/01/23 07:56:33;;;;;;;8.40;2.40;;;;;;;-1.66;65.24;101620.00;5590891;31;34008;-68
2022/01/23 07:59:38;;;;;;;5.35;2.20;;;;;;;-1.58;64.62;101623.13;5591146;31;33954;-65
2022/01/23 08:02:43;;;;;;;5.47;2.15;;;;;;;-1.58;64.86;101626.59;5590981;31;34213;-66
2022/01/23 08:05:57;;;;;;;5.93;1.95;;;;;;;-1.31;63.71;101616.84;5590985;31;35234;-67
2022/01/23 08:09:00;;;;;;;6.15;2.45;;;;;;;-1.31;63.58;101630.69;5590663;31;33928;-66
2022/01/23 08:12:07;;;;;;;5.15;2.50;;;;;;;-1.26;63.51;101627.91;5590660;31;35121;-66
2022/01/23 08:15:09;;;;;;;6.62;2.33;;;;;;;-1.23;62.81;101629.53;5590689;31;33907;-68
2022/01/23 08:18:15;;;;;;;6.20;2.25;;;;;;;-1.25;62.18;101634.78;5590554;31;33974;-66
2022/01/23 08:21:18;;;;;;;7.72;2.20;;;;;;;-1.22;62.68;101647.72;5590687;31;34612;-65
2022/01/23 08:24:20;;;;;;;9.57;2.22;;;;;;;-1.17;62.69;101648.38;5590714;31;33312;-66
2022/01/23 08:27:25;;;;;;;6.05;2.60;;;;;;;-1.05;61.78;101650.47;5590499;31;34526;-66
2022/01/23 08:30:32;;;;;;;5.82;2.50;;;;;;;-1.06;62.01;101651.34;5590299;31;34366;-67
2022/01/23 08:33:34;;;;;;;9.10;2.60;;;;;;;-0.95;61.65;101658.75;5589959;31;34835;-65
2022/01/23 08:36:37;;;;;;;6.45;2.40;;;;;;;-1.01;61.68;101662.44;5590490;31;33950;-65
2022/01/23 08:39:41;;;;;;;6.22;2.42;;;;;;;-0.96;61.19;101664.84;5590780;31;35253;-66
2022/01/23 08:42:43;;;;;;;9.40;2.62;;;;;;;-0.89;61.36;101648.91;5590469;31;34289;-66
2022/01/23 08:45:46;;;;;;;12.65;3.12;;;;;;;-0.84;60.90;101648.72;5590460;31;34303;-66
2022/01/23 08:48:49;;;;;;;5.07;2.22;;;;;;;-0.62;60.95;101627.81;5590191;31;33998;-66
2022/01/23 08:51:54;;;;;;;3.83;2.10;;;;;;;-0.71;61.45;101636.87;5589995;31;34772;-67
2022/01/23 08:54:56;;;;;;;5.45;2.20;;;;;;;-0.82;61.24;101646.06;5590163;31;34525;-66
2022/01/23 08:57:59;;;;;;;8.23;2.35;;;;;;;-0.88;61.24;101647.16;5590267;31;34005;-66
2022/01/23 09:01:03;;;;;;;6.95;2.00;;;;;;;-0.91;61.49;101665.50;5590730;31;33863;-67
2022/01/23 09:04:07;;;;;;;5.72;2.50;;;;;;;-0.72;60.75;101653.41;5590199;31;35333;-65
2022/01/23 09:07:10;;;;;;;8.63;2.65;;;;;;;-0.78;60.41;101660.66;5590220;31;34005;-65
2022/01/23 09:10:12;;;;;;;5.45;2.30;;;;;;;-0.69;60.14;101655.06;5590041;31;34273;-65
2022/01/23 09:13:30;;;;;;;5.85;2.30;;;;;;;-0.82;60.83;101665.13;5590100;31;33812;-65
2022/01/23 09:16:38;;;;;;;5.75;2.25;;;;;;;-0.71;60.14;101667.28;5589731;31;34272;-64
2022/01/23 09:19:41;;;;;;;8.55;2.75;;;;;;;-0.63;59.76;101662.62;5589981;31;33990;-64
2022/01/23 09:22:43;;;;;;;6.35;2.33;;;;;;;-0.59;59.86;101672.00;5590055;31;33911;-65
2022/01/23 09:25:51;;;;;;;5.45;2.30;;;;;;;-0.52;60.02;101669.03;5589948;31;34408;-65
2022/01/23 09:28:57;;;;;;;6.30;2.10;;;;;;;-0.29;59.39;101670.66;5589696;31;34666;-65
2022/01/23 09:32:01;;;;;;;5.43;2.10;;;;;;;-0.22;58.66;101671.25;5589969;31;35248;-66
2022/01/23 09:35:03;;;;;;;7.47;2.30;;;;;;;-0.12;58.45;101667.31;5590058;31;34058;-66
2022/01/23 09:38:06;;;;;;;6.15;2.50;;;;;;;-0.04;58.36;101670.41;5590115;31;33924;-67
2022/01/23 09:41:14;;;;;;;9.05;3.40;;;;;;;-0.23;58.69;101670.38;5589774;31;33990;-67
2022/01/23 09:44:19;;;;;;;6.22;2.30;;;;;;;-0.22;58.85;101658.19;5589655;31;35018;-66
2022/01/23 09:47:22;;;;;;;6.85;2.40;;;;;;;-0.34;59.00;101662.22;5575105;31;33875;-64
2022/01/23 09:50:25;;;;;;;9.02;2.65;;;;;;;-0.30;58.54;101653.34;5589604;31;34708;-65
2022/01/23 09:53:29;;;;;;;8.27;2.58;;;;;;;-0.07;58.87;101665.34;5589670;31;33937;-66
2022/01/23 09:56:34;;;;;;;4.57;2.12;;;;;;;-0.23;58.82;101652.12;5589661;31;34613;-65
2022/01/23 09:59:39;;;;;;;5.82;2.70;;;;;;;-0.32;59.23;101656.91;5589621;31;33941;-65
2022/01/23 10:02:42;;;;;;;8.80;2.20;;;;;;;-0.14;58.11;101658.69;5589402;31;34102;-66
2022/01/23 10:05:53;;;;;;;5.62;2.50;;;;;;;-0.03;58.61;101662.53;5589512;31;35401;-65
2022/01/23 10:08:56;;;;;;;5.60;2.50;;;;;;;0.01;58.40;101668.44;5589501;31;34021;-65
2022/01/23 10:11:59;;;;;;;4.87;2.45;;;;;;;0.17;57.60;101669.44;5589496;31;34023;-66
2022/01/23 10:15:02;;;;;;;5.32;2.17;;;;;;;0.29;57.69;101668.88;5589782;31;35154;-66
2022/01/23 10:18:05;;;;;;;9.10;2.42;;;;;;;0.09;58.21;101668.97;5575686;31;34809;-66
2022/01/23 10:21:10;;;;;;;7.30;2.67;;;;;;;0.17;58.10;101666.84;5589624;31;33975;-65
2022/01/23 10:24:14;;;;;;;7.78;2.40;;;;;;;0.18;57.86;101667.69;5589863;31;33986;-66
2022/01/23 10:27:17;;;;;;;7.87;2.67;;;;;;;0.41;57.18;101663.09;5582984;31;216486;-65
2022/01/23 10:30:23;;;;;;;7.05;2.87;;;;;;;0.57;57.34;101665.84;5589512;31;33945;-64
2022/01/23 10:33:47;;;;;;;4.85;2.33;;;;;;;0.92;55.61;101655.47;5589451;31;33977;-65
2022/01/23 10:36:49;;;;;;;5.85;2.28;;;;;;;0.87;55.95;101658.31;5575410;31;34223;-66
2022/01/23 10:39:53;;;;;;;9.80;2.80;;;;;;;0.43;56.21;101652.59;5589043;31;33910;-66
2022/01/23 10:46:37;;;;;;;7.65;2.70;;;;;;;0.63;56.45;101643.81;5575497;31;34895;-65
2022/01/23 10:47:10;;;;;;;9.23;2.70;;;;;;;0.57;56.06;101646.72;5589626;31;33989;-66
2022/01/23 10:50:07;;;;;;;6.62;2.60;;;;;;;0.65;56.36;101655.88;5589206;31;33967;-66
2022/01/23 10:53:12;;;;;;;6.93;2.40;;;;;;;0.97;55.21;101653.47;5589109;31;34014;-66
2022/01/23 10:56:15;;;;;;;6.05;2.55;;;;;;;1.24;54.44;101655.56;5575103;31;34019;-66
2022/01/23 10:59:17;;;;;;;6.60;1.92;;;;;;;1.06;54.20;101640.78;5589164;31;33949;-66
2022/01/23 11:02:25;;;;;;;6.43;2.53;;;;;;;1.36;53.51;101635.75;5588631;31;34615;-66
2022/01/23 11:05:36;;;;;;;6.50;2.67;;;;;;;1.13;53.95;101650.00;5589013;31;34693;-66
2022/01/23 11:08:39;;;;;;;10.10;3.00;;;;;;;1.33;53.79;101648.16;5589243;31;35506;-66
2022/01/23 11:11:46;;;;;;;5.37;2.67;;;;;;;1.15;54.46;101650.78;5588994;31;34331;-66
2022/01/23 11:18:31;;;;;;;7.40;3.03;;;;;;;1.03;54.90;101650.53;5588672;31;34058;-66
2022/01/23 11:21:35;;;;;;;4.82;2.58;;;;;;;0.91;55.17;101656.38;5588621;31;34711;-66
2022/01/23 11:25:08;;;;;;;7.70;2.90;;;;;;;0.92;55.19;101652.84;5588439;31;34601;-66
2022/01/23 11:28:11;;;;;;;9.93;3.10;;;;;;;1.33;53.80;101648.16;5574772;31;34033;-65
2022/01/23 11:31:19;;;;;;;6.80;2.78;;;;;;;1.39;54.25;101648.69;5588431;31;34172;-67
2022/01/23 11:34:23;;;;;;;9.20;3.05;;;;;;;1.28;54.40;101644.00;5588249;31;34712;-66
2022/01/23 11:37:26;;;;;;;8.05;2.97;;;;;;;1.24;54.86;101642.47;5588525;31;34695;-66
2022/01/23 11:40:39;;;;;;;6.72;2.90;;;;;;;1.40;53.96;101641.72;5574400;31;34207;-66
2022/01/23 11:50:44;;;;;;;6.78;2.80;;;;;;;1.53;53.41;101637.53;5558083;31;35145;-67
2022/01/23 11:53:59;;;;;;;7.95;2.80;;;;;;;1.25;54.10;101643.34;5574485;31;33955;-65
2022/01/23 11:57:03;;;;;;;7.55;3.08;;;;;;;1.44;52.87;101640.63;5588050;31;34676;-67
2022/01/23 12:00:26;;;;;;;4.95;2.85;;;;;;;1.51;52.93;101634.13;5574333;31;34019;-66
2022/01/23 12:03:29;;;;;;;9.07;3.17;;;;;;;1.37;53.37;101640.06;5588053;31;33958;-66
2022/01/23 12:06:37;;;;;;;6.87;3.05;;;;;;;1.37;53.57;101628.78;5561417;31;33919;-66
2022/01/23 12:09:45;;;;;;;9.88;3.28;;;;;;;1.23;53.73;101630.31;5575608;31;33939;-65
2022/01/23 12:12:51;;;;;;;6.07;2.70;;;;;;;1.03;54.26;101629.63;5590564;31;35386;-67
2022/01/23 12:19:17;;;;;;;6.30;2.60;;;;;;;0.82;55.55;101632.38;5590512;31;34645;-66
2022/01/23 12:22:24;;;;;;;6.12;2.85;;;;;;;1.43;53.68;101629.31;5590556;31;34661;-67
2022/01/23 12:25:30;;;;;;;6.93;3.05;;;;;;;2.70;50.59;101631.13;5590630;31;34095;-67
2022/01/23 12:28:43;;;;;;;5.62;2.70;;;;;;;2.69;50.21;101626.81;5576991;31;33926;-66
2022/01/23 12:31:46;;;;;;;9.93;2.80;;;;;;;2.55;51.23;101630.22;5590592;31;35445;-66
2022/01/23 12:34:52;;;;;;;12.48;2.87;;;;;;;2.30;52.16;101627.28;5590719;31;33864;-66
2022/01/23 12:38:00;;;;;;;7.35;3.17;;;;;;;2.27;52.11;101622.22;5590359;31;34703;-67
2022/01/23 12:41:25;;;;;;;8.73;3.37;;;;;;;1.97;52.20;101619.50;5590321;31;34700;-67
2022/01/23 12:44:28;;;;;;;7.18;2.78;;;;;;;2.00;52.66;101617.53;5590336;31;35461;-67
2022/01/23 12:47:30;;;;;;;8.32;2.97;;;;;;;2.21;52.32;101615.53;5590273;31;34584;-67
2022/01/23 12:50:45;;;;;;;6.28;3.20;;;;;;;2.30;52.29;101611.56;5590286;31;33962;-68
2022/01/23 12:53:47;;;;;;;6.93;2.70;;;;;;;2.84;51.01;101605.81;5576727;31;33934;-68
2022/01/23 12:56:51;;;;;;;7.32;2.50;;;;;;;2.93;49.70;101610.53;5590307;31;34637;-67
2022/01/23 12:59:57;;;;;;;6.03;3.00;;;;;;;3.12;49.21;101607.69;5590755;31;34007;-67
2022/01/23 13:03:03;;;;;;;6.72;2.42;;;;;;;2.62;49.45;101597.50;5576515;31;33870;-67
2022/01/23 13:06:10;;;;;;;8.93;3.20;;;;;;;2.57;50.18;101607.38;5590245;31;34585;-67
2022/01/23 13:16:04;;;;;;;11.23;3.10;;;;;;;2.56;50.80;101605.72;5590241;31;34448;-67
2022/01/23 13:19:45;;;;;;;5.22;2.55;;;;;;;2.33;51.09;101617.47;5590011;31;34026;-68
2022/01/23 13:27:07;;;;;;;4.82;2.70;;;;;;;2.34;50.68;101624.41;5589776;31;34033;-67
2022/01/23 13:30:19;;;;;;;6.85;3.22;;;;;;;2.08;51.75;101610.09;5589866;31;34674;-67
2022/01/23 13:33:24;;;;;;;5.25;2.70;;;;;;;2.02;52.15;101613.09;5576251;31;34627;-66
2022/01/23 13:36:27;;;;;;;6.15;2.87;;;;;;;2.14;52.39;101620.25;5576304;31;34043;-67
2022/01/23 13:39:34;;;;;;;6.57;3.22;;;;;;;1.91;52.63;101627.66;5589512;31;34020;-67
2022/01/23 13:50:48;;;;;;;4.30;2.50;;;;;;;1.74;53.22;101628.56;5589628;31;34190;-66
2022/01/23 13:53:13;;;;;;;8.45;3.22;;;;;;;1.48;53.94;101629.91;5589694;31;34303;-66
2022/01/23 14:00:07;;;;;;;8.60;3.10;;;;;;;1.85;54.00;101641.91;5589668;31;34048;-66
2022/01/23 14:03:12;;;;;;;8.55;3.15;;;;;;;2.06;53.76;101637.31;5589964;31;34611;-66
2022/01/23 14:06:15;;;;;;;5.87;3.00;;;;;;;2.07;52.58;101634.63;5590205;31;33359;-67
2022/01/23 14:09:20;;;;;;;5.93;3.05;;;;;;;2.23;52.34;101631.97;5589667;31;33890;-67
2022/01/23 14:12:26;;;;;;;5.97;2.62;;;;;;;2.30;52.40;101630.72;5589700;31;33805;-67
2022/01/23 14:15:52;;;;;;;7.97;3.00;;;;;;;2.06;52.81;101634.69;5589502;31;34327;-67
2022/01/23 14:19:16;;;;;;;6.90;3.33;;;;;;;1.77;54.00;101636.25;5589794;31;33998;-66
2022/01/23 14:22:27;;;;;;;8.73;2.97;;;;;;;1.54;54.55;101634.84;5589254;31;34575;-66
2022/01/23 14:25:30;;;;;;;5.53;2.53;;;;;;;1.38;55.50;101638.31;5589415;31;34063;-65
2022/01/23 14:28:39;;;;;;;8.48;3.00;;;;;;;1.34;55.33;101642.00;5589277;31;33969;-67
2022/01/23 14:31:44;;;;;;;9.10;2.80;;;;;;;1.31;55.49;101640.37;5588889;31;34488;-67
2022/01/23 14:34:47;;;;;;;7.05;3.35;;;;;;;1.30;55.80;101634.34;5589461;31;34106;-65
2022/01/23 14:37:51;;;;;;;11.27;2.92;;;;;;;1.26;55.83;101637.16;5589446;31;33973;-65
2022/01/23 14:40:58;;;;;;;7.62;2.55;;;;;;;1.33;55.70;101637.69;5589453;31;34559;-65
2022/01/23 14:44:14;;;;;;;8.68;2.92;;;;;;;1.25;55.86;101653.78;5589252;31;34281;-65
2022/01/23 14:47:17;;;;;;;8.85;3.10;;;;;;;1.22;56.06;101641.69;5550010;31;32559;-66
2022/01/23 14:50:23;;;;;;;6.32;2.90;;;;;;;1.20;55.74;101650.56;5589568;31;34770;-64
2022/01/23 14:53:27;;;;;;;8.40;2.72;;;;;;;1.27;55.97;101644.09;5589043;31;34085;-65
2022/01/23 14:56:32;;;;;;;7.40;3.28;;;;;;;1.23;55.99;101655.62;5575432;31;34025;-65
2022/01/23 14:59:36;;;;;;;8.00;3.40;;;;;;;1.21;55.51;101658.31;5589138;31;34614;-65
2022/01/23 15:02:42;;;;;;;5.87;3.00;;;;;;;1.23;56.25;101666.91;5589082;31;34019;-65
2022/01/23 15:05:46;;;;;;;9.48;3.12;;;;;;;1.18;55.88;101675.91;5589154;31;34034;-65
2022/01/23 15:08:49;;;;;;;7.30;2.92;;;;;;;1.02;56.83;101669.75;5575313;31;34576;-65
2022/01/23 15:11:51;;;;;;;5.20;2.40;;;;;;;0.85;57.26;101671.44;5575132;31;34059;-65
2022/01/23 15:14:54;;;;;;;6.80;2.90;;;;;;;0.95;57.09;101673.59;5589172;31;33916;-65
2022/01/23 15:17:57;;;;;;;11.48;3.47;;;;;;;0.88;57.25;101676.50;5589076;31;34196;-65
2022/01/23 15:21:00;;;;;;;9.88;3.50;;;;;;;0.85;58.12;101679.25;5588996;31;34646;-65
2022/01/23 15:24:03;;;;;;;10.77;3.90;;;;;;;0.59;59.97;101687.50;5588523;31;34826;-64
2022/01/23 15:27:06;;;;;;;11.10;4.28;;;;;;;0.72;60.27;101699.06;5588626;31;34282;-65
2022/01/23 15:30:12;;;;;;;8.88;4.05;;;;;;;0.82;60.71;101697.69;5588465;31;33972;-64
2022/01/23 15:33:15;;;;;;;11.45;4.05;;;;;;;0.68;61.51;101697.50;5588327;31;34671;-64
2022/01/23 15:36:17;;;;;;;10.30;3.87;;;;;;;0.66;61.93;101703.72;5588501;31;33999;-64
2022/01/23 15:39:22;;;;;;;10.95;4.25;;;;;;;0.52;63.02;101708.75;5588297;31;33984;-65
2022/01/23 15:42:25;;;;;;;10.13;4.62;;;;;;;0.40;63.86;101707.53;5588359;31;35292;-65
2022/01/23 15:45:28;;;;;;;14.05;4.70;;;;;;;0.16;65.03;101711.25;5590566;31;34014;-64
2022/01/23 15:48:31;;;;;;;10.77;4.43;;;;;;;0.15;65.20;101722.59;5590848;31;34421;-64
2022/01/23 15:51:35;;;;;;;9.32;4.20;;;;;;;-0.14;66.16;101716.91;5590889;31;33965;-65
2022/01/23 15:54:38;;;;;;;11.30;4.53;;;;;;;-0.26;67.08;101724.44;5590701;31;34261;-65
2022/01/23 15:57:41;;;;;;;10.50;4.50;;;;;;;-0.43;67.96;101726.00;5590956;31;34296;-65
2022/01/23 16:00:45;;;;;;;10.52;4.25;;;;;;;-0.22;67.53;101726.00;5590687;31;33867;-65
2022/01/23 16:03:48;;;;;;;11.25;4.60;;;;;;;-0.11;67.30;101734.22;5590609;31;34092;-65
2022/01/23 16:06:51;;;;;;;9.50;4.50;;;;;;;-0.17;67.31;101730.09;5590686;31;34580;-66
2022/01/23 16:09:54;;;;;;;10.77;4.62;;;;;;;-0.18;67.38;101731.00;5590921;31;34819;-66
2022/01/23 16:12:56;;;;;;;12.60;4.60;;;;;;;-0.20;67.60;101732.00;5590636;31;33896;-65
2022/01/23 16:16:00;;;;;;;9.07;4.22;;;;;;;-0.30;67.98;101738.53;5590672;31;34523;-66
2022/01/23 16:19:03;;;;;;;10.90;4.72;;;;;;;-0.38;68.45;101733.62;5590675;31;33937;-64
2022/01/23 16:22:06;;;;;;;10.65;5.05;;;;;;;-0.32;68.15;101732.53;5590652;31;34618;-66
2022/01/23 16:25:10;;;;;;;9.30;4.85;;;;;;;-0.41;68.55;101727.69;5590321;31;34101;-65
2022/01/23 16:28:13;;;;;;;10.98;5.00;;;;;;;-0.53;68.99;101732.50;5590570;31;35204;-65
2022/01/23 16:31:16;;;;;;;14.90;5.80;;;;;;;-0.35;68.33;101743.94;5576717;31;34088;-64
2022/01/23 16:34:21;;;;;;;12.18;4.90;;;;;;;-0.34;68.04;101743.03;5590220;31;34784;-65
2022/01/23 16:37:24;;;;;;;12.70;5.07;;;;;;;-0.44;68.45;101737.34;5590635;31;33994;-65
2022/01/23 16:40:27;;;;;;;9.27;4.78;;;;;;;-0.43;67.85;101749.47;5590323;31;34626;-65
2022/01/23 16:43:30;;;;;;;11.12;4.53;;;;;;;-0.52;69.08;101759.44;5590205;31;33939;-65
2022/01/23 16:46:37;;;;;;;11.82;4.68;;;;;;;-0.47;68.46;101754.88;5590128;31;33946;-66
2022/01/23 16:49:40;;;;;;;11.70;4.95;;;;;;;-0.49;68.38;101757.56;5590334;31;33957;-65
2022/01/23 16:52:43;;;;;;;13.07;4.50;;;;;;;-0.52;68.55;101755.06;5589997;31;34705;-65
2022/01/23 16:55:46;;;;;;;11.80;4.60;;;;;;;-0.64;69.33;101762.56;5576165;31;34933;-65
2022/01/23 16:58:48;;;;;;;11.50;4.93;;;;;;;-0.73;69.61;101770.75;5590300;31;34094;-65
2022/01/23 17:01:53;;;;;;;17.50;5.20;;;;;;;-0.70;69.54;101773.22;5576766;31;33865;-67
2022/01/23 17:04:57;;;;;;;12.18;4.68;;;;;;;-0.70;69.33;101763.66;5590444;31;34025;-65
2022/01/23 17:07:59;;;;;;;12.85;5.57;;;;;;;-0.72;69.94;101762.84;5590182;31;33982;-65
2022/01/23 17:11:02;;;;;;;14.38;5.50;;;;;;;-0.64;69.64;101759.94;5590189;31;33938;-65
2022/01/23 17:14:05;;;;;;;17.02;6.12;;;;;;;-0.78;70.07;101767.47;5590394;31;33988;-65
2022/01/23 17:17:08;;;;;;;14.25;6.45;;;;;;;-0.87;70.48;101753.88;5589846;31;33897;-66
2022/01/23 17:20:11;;;;;;;10.27;5.28;;;;;;;-0.83;70.46;101759.84;5589951;31;34631;-65